createdAt,value
2022-08-26T00:00:15.814Z,101588.09
2022-08-26T00:01:05.865Z,101584.56
2022-08-26T00:01:37.622Z,101586.88
2022-08-26T00:02:09.082Z,101586.13
2022-08-26T00:03:29.649Z,101590.09
2022-08-26T00:04:01.428Z,101591.66
2022-08-26T00:05:41.917Z,101588.91
2022-08-26T00:06:13.780Z,101589.22
2022-08-26T00:06:46.361Z,101590.78
2022-08-26T00:07:18.387Z,101592.38
2022-08-26T00:07:50.425Z,101591.16
2022-08-26T00:08:41.626Z,101588.38
2022-08-26T00:09:16.870Z,101589.59
2022-08-26T00:09:48.278Z,101588.81
2022-08-26T00:10:21.508Z,101588.09
2022-08-26T00:10:57.223Z,101589.81
2022-08-26T00:11:31.769Z,101593.03
2022-08-26T00:12:03.666Z,101592.69
2022-08-26T00:12:37.379Z,101598.22
2022-08-26T00:13:10.635Z,101590.34
2022-08-26T00:13:42.248Z,101593.09
2022-08-26T00:14:20.619Z,101597.88
2022-08-26T00:14:51.980Z,101591.19
2022-08-26T00:15:43.268Z,101586.50
2022-08-26T00:16:14.938Z,101588.25
2022-08-26T00:16:47.495Z,101590.66
2022-08-26T00:17:20.100Z,101592.22
2022-08-26T00:17:52.961Z,101593.00
2022-08-26T00:18:24.473Z,101593.78
2022-08-26T00:18:57.519Z,101595.34
2022-08-26T00:19:29.515Z,101589.38
2022-08-26T00:20:00.907Z,101590.94
2022-08-26T00:20:33.282Z,101596.50
2022-08-26T00:21:07.348Z,101593.25
2022-08-26T00:21:57.036Z,101594.03
2022-08-26T00:22:28.512Z,101591.72
2022-08-26T00:23:00.966Z,101594.03
2022-08-26T00:23:32.484Z,101592.03
2022-08-26T00:24:04.071Z,101592.81
2022-08-26T00:24:35.487Z,101593.59
2022-08-26T00:25:07.894Z,101606.25
2022-08-26T00:25:42.475Z,101599.50
2022-08-26T00:26:15.012Z,101595.19
2022-08-26T00:26:46.696Z,101592.81
2022-08-26T00:27:18.059Z,101592.03
2022-08-26T00:27:50.151Z,101596.81
2022-08-26T00:28:24.344Z,101603.13
2022-08-26T00:28:56.429Z,101599.59
2022-08-26T00:29:28.437Z,101596.03
2022-08-26T00:30:07.278Z,101587.28
2022-08-26T00:30:39.437Z,101593.97
2022-08-26T00:31:31.218Z,101589.56
2022-08-26T00:32:02.995Z,101586.00
2022-08-26T00:32:36.250Z,101590.34
2022-08-26T00:33:27.556Z,101593.88
2022-08-26T00:33:59.575Z,101586.34
2022-08-26T00:34:30.928Z,101587.91
2022-08-26T00:35:03.095Z,101593.09
2022-08-26T00:35:35.066Z,101593.53
2022-08-26T00:36:08.051Z,101591.13
2022-08-26T00:36:52.199Z,101589.13
2022-08-26T00:37:23.536Z,101587.56
2022-08-26T00:37:57.676Z,101586.78
2022-08-26T00:38:29.096Z,101591.97
2022-08-26T00:39:01.872Z,101594.38
2022-08-26T00:39:33.392Z,101587.63
2022-08-26T00:40:10.008Z,101590.41
2022-08-26T00:40:52.608Z,101590.84
2022-08-26T00:41:24.153Z,101589.97
2022-08-26T00:41:55.829Z,101592.31
2022-08-26T00:42:27.636Z,101595.09
2022-08-26T00:42:59.777Z,101591.13
2022-08-26T00:43:47.476Z,101587.56
2022-08-26T00:44:19.766Z,101588.00
2022-08-26T00:44:51.178Z,101586.44
2022-08-26T00:45:23.511Z,101581.31
2022-08-26T00:45:59.367Z,101578.53
2022-08-26T00:46:36.991Z,101581.66
2022-08-26T00:47:19.072Z,101575.69
2022-08-26T00:48:10.062Z,101569.72
2022-08-26T00:48:44.929Z,101580.81
2022-08-26T00:49:29.615Z,101577.59
2022-08-26T00:50:04.956Z,101582.28
2022-08-26T00:50:57.946Z,101586.63
2022-08-26T00:51:30.299Z,101581.06
2022-08-26T00:52:05.065Z,101587.06
2022-08-26T00:53:34.343Z,101597.38
2022-08-26T00:54:10.764Z,101593.03
2022-08-26T00:54:49.275Z,101600.56
2022-08-26T00:56:53.274Z,101605.34
2022-08-26T00:57:25.389Z,101603.78
2022-08-26T00:57:57.620Z,101601.00
2022-08-26T00:58:32.546Z,101606.53
2022-08-26T00:59:10.791Z,101599.00
2022-08-26T00:59:44.379Z,101600.56
2022-08-26T01:00:21.108Z,101594.25
2022-08-26T01:01:11.270Z,101599.44
2022-08-26T01:01:44.114Z,101595.88
2022-08-26T01:02:20.150Z,101600.28
2022-08-26T01:02:55.504Z,101604.63
2022-08-26T01:03:28.976Z,101596.31
2022-08-26T01:04:01.064Z,101601.44
2022-08-26T01:05:26.181Z,101601.06
2022-08-26T01:06:17.999Z,101603.84
2022-08-26T01:06:52.208Z,101602.63
2022-08-26T01:07:30.019Z,101593.97
2022-08-26T01:08:20.691Z,101595.59
2022-08-26T01:08:52.473Z,101592.94
2022-08-26T01:09:24.300Z,101592.16
2022-08-26T01:09:57.301Z,101588.25
2022-08-26T01:10:31.148Z,101590.16
2022-08-26T01:11:03.331Z,101588.94
2022-08-26T01:11:36.510Z,101598.06
2022-08-26T01:12:07.903Z,101592.50
2022-08-26T01:12:50.679Z,101585.41
2022-08-26T01:13:22.553Z,101590.16
2022-08-26T01:14:20.162Z,101587.47
2022-08-26T01:14:51.851Z,101589.44
2022-08-26T01:15:28.071Z,101586.69
2022-08-26T01:16:54.710Z,101583.91
2022-08-26T01:17:26.183Z,101590.66
2022-08-26T01:17:59.053Z,101585.53
2022-08-26T01:18:31.510Z,101585.13
2022-08-26T01:19:14.824Z,101581.56
2022-08-26T01:19:52.319Z,101580.34
2022-08-26T01:20:35.656Z,101587.47
2022-08-26T01:21:42.159Z,101581.91
2022-08-26T01:22:32.952Z,101581.13
2022-08-26T01:23:08.493Z,101585.53
2022-08-26T01:23:45.048Z,101579.66
2022-08-26T01:24:17.076Z,101582.84
2022-08-26T01:24:49.580Z,101587.19
2022-08-26T01:25:23.958Z,101583.63
2022-08-26T01:26:49.675Z,101582.84
2022-08-26T01:27:21.944Z,101579.38
2022-08-26T01:27:57.848Z,101581.00
2022-08-26T01:29:41.105Z,101582.31
2022-08-26T01:30:13.360Z,101580.75
2022-08-26T01:30:46.648Z,101570.44
2022-08-26T01:31:22.337Z,101576.84
2022-08-26T01:31:56.503Z,101577.63
2022-08-26T01:32:28.446Z,101580.41
2022-08-26T01:33:20.618Z,101582.75
2022-08-26T01:34:10.974Z,101585.50
2022-08-26T01:34:42.765Z,101587.06
2022-08-26T01:35:14.138Z,101587.06
2022-08-26T01:35:45.627Z,101588.63
2022-08-26T01:36:17.013Z,101590.56
2022-08-26T01:37:41.206Z,101595.56
2022-08-26T01:38:13.092Z,101577.38
2022-08-26T01:39:05.938Z,101592.38
2022-08-26T01:41:27.586Z,101584.75
2022-08-26T01:42:03.213Z,101592.31
2022-08-26T01:42:34.751Z,101592.31
2022-08-26T01:43:08.374Z,101587.97
2022-08-26T01:43:46.596Z,101585.19
2022-08-26T01:44:23.696Z,101589.59
2022-08-26T01:45:03.657Z,101592.81
2022-08-26T01:45:37.311Z,101594.00
2022-08-26T01:46:27.228Z,101595.56
2022-08-26T01:46:59.890Z,101597.13
2022-08-26T01:47:33.658Z,101586.81
2022-08-26T01:48:11.500Z,101587.59
2022-08-26T01:49:03.292Z,101587.59
2022-08-26T01:49:38.402Z,101593.09
2022-08-26T01:50:15.667Z,101592.31
2022-08-26T01:50:50.397Z,101589.53
2022-08-26T01:51:25.051Z,101591.09
2022-08-26T01:51:57.198Z,101591.09
2022-08-26T01:52:33.848Z,101585.19
2022-08-26T01:53:12.028Z,101586.75
2022-08-26T01:53:46.106Z,101594.66
2022-08-26T01:54:18.409Z,101589.53
2022-08-26T01:54:54.369Z,101588.66
2022-08-26T01:55:32.292Z,101592.22
2022-08-26T01:56:06.184Z,101587.09
2022-08-26T01:56:38.048Z,101588.66
2022-08-26T01:57:09.382Z,101588.66
2022-08-26T01:57:44.330Z,101594.22
2022-08-26T01:58:24.753Z,101586.31
2022-08-26T01:58:59.623Z,101591.09
2022-08-26T01:59:31.018Z,101599.84
2022-08-26T02:00:08.755Z,101596.63
2022-08-26T02:00:40.534Z,101591.09
2022-08-26T02:01:16.088Z,101593.88
2022-08-26T02:01:48.622Z,101587.97
2022-08-26T02:03:18.169Z,101583.28
2022-08-26T02:04:14.241Z,101593.16
2022-08-26T02:04:51.750Z,101589.19
2022-08-26T02:05:23.175Z,101589.19
2022-08-26T02:06:03.248Z,101590.72
2022-08-26T02:06:37.368Z,101593.09
2022-08-26T02:07:09.713Z,101589.19
2022-08-26T02:07:42.128Z,101595.50
2022-08-26T02:08:15.015Z,101598.69
2022-08-26T02:08:56.334Z,101595.50
2022-08-26T02:09:28.268Z,101590.72
2022-08-26T02:10:02.211Z,101590.72
2022-08-26T02:10:34.902Z,101597.84
2022-08-26T02:11:07.831Z,101601.81
2022-08-26T02:11:39.414Z,101602.59
2022-08-26T02:12:12.735Z,101601.41
2022-08-26T02:12:44.102Z,101604.94
2022-08-26T02:13:15.508Z,101603.38
2022-08-26T02:13:51.870Z,101599.75
2022-08-26T02:14:29.068Z,101605.66
2022-08-26T02:15:05.643Z,101601.69
2022-08-26T02:15:40.820Z,101599.69
2022-08-26T02:16:16.625Z,101602.88
2022-08-26T02:16:51.791Z,101602.47
2022-08-26T02:17:29.080Z,101596.13
2022-08-26T02:18:02.672Z,101597.34
2022-08-26T02:18:38.514Z,101601.69
2022-08-26T02:19:18.474Z,101596.13
2022-08-26T02:19:50.475Z,101592.16
2022-08-26T02:20:21.836Z,101596.13
2022-08-26T02:20:55.274Z,101593.34
2022-08-26T02:21:27.605Z,101595.72
2022-08-26T02:22:03.052Z,101594.94
2022-08-26T02:22:35.353Z,101589.44
2022-08-26T02:23:08.490Z,101600.13
2022-08-26T02:23:40.439Z,101597.00
2022-08-26T02:24:16.060Z,101600.97
2022-08-26T02:24:55.985Z,101598.19
2022-08-26T02:25:51.576Z,101601.75
2022-08-26T02:26:25.393Z,101598.97
2022-08-26T02:27:48.319Z,101593.44
2022-08-26T02:28:20.094Z,101595.84
2022-08-26T02:28:58.358Z,101601.81
2022-08-26T02:29:55.873Z,101601.81
2022-08-26T02:30:31.884Z,101595.50
2022-08-26T02:31:03.763Z,101597.13
2022-08-26T02:31:36.113Z,101596.34
2022-08-26T02:32:08.787Z,101600.34
2022-08-26T02:32:59.264Z,101595.56
2022-08-26T02:33:49.316Z,101603.09
2022-08-26T02:34:26.003Z,101603.53
2022-08-26T02:35:20.301Z,101596.00
2022-08-26T02:35:51.800Z,101598.00
2022-08-26T02:36:25.005Z,101596.44
2022-08-26T02:37:08.462Z,101593.31
2022-08-26T02:38:00.275Z,101595.31
2022-08-26T02:38:50.880Z,101591.84
2022-08-26T02:39:23.540Z,101597.44
2022-08-26T02:39:55.121Z,101593.13
2022-08-26T02:41:23.084Z,101595.09
2022-08-26T02:41:54.640Z,101595.09
2022-08-26T02:42:26.066Z,101603.00
2022-08-26T02:42:58.393Z,101597.03
2022-08-26T02:43:32.982Z,101597.44
2022-08-26T02:44:07.076Z,101603.00
2022-08-26T02:44:38.948Z,101593.13
2022-08-26T02:45:11.287Z,101592.34
2022-08-26T02:45:43.489Z,101590.34
2022-08-26T02:46:27.891Z,101584.03
2022-08-26T02:47:01.822Z,101589.56
2022-08-26T02:47:33.880Z,101590.00
2022-08-26T02:48:12.224Z,101585.72
2022-08-26T02:48:43.555Z,101588.91
2022-08-26T02:49:35.123Z,101578.28
2022-08-26T02:50:25.995Z,101580.72
2022-08-26T02:51:50.514Z,101584.69
2022-08-26T02:52:22.084Z,101573.25
2022-08-26T02:52:53.614Z,101576.09
2022-08-26T02:53:25.536Z,101579.63
2022-08-26T02:53:57.067Z,101580.41
2022-08-26T02:54:28.785Z,101584.31
2022-08-26T02:55:00.160Z,101580.34
2022-08-26T02:55:32.198Z,101574.81
2022-08-26T02:56:07.299Z,101575.59
2022-08-26T02:56:38.704Z,101576.38
2022-08-26T02:57:11.244Z,101578.38
2022-08-26T02:57:42.786Z,101571.25
2022-08-26T02:58:14.644Z,101580.72
2022-08-26T02:58:46.327Z,101574.81
2022-08-26T02:59:18.072Z,101580.78
2022-08-26T02:59:49.588Z,101578.44
2022-08-26T03:00:21.609Z,101580.41
2022-08-26T03:00:55.371Z,101578.50
2022-08-26T03:01:30.072Z,101579.28
2022-08-26T03:02:03.063Z,101582.41
2022-08-26T03:02:34.580Z,101583.97
2022-08-26T03:03:06.534Z,101584.75
2022-08-26T03:03:57.555Z,101578.44
2022-08-26T03:04:30.370Z,101583.19
2022-08-26T03:05:05.491Z,101583.19
2022-08-26T03:05:37.270Z,101585.59
2022-08-26T03:06:27.908Z,101585.97
2022-08-26T03:06:59.824Z,101591.06
2022-08-26T03:09:28.508Z,101578.91
2022-08-26T03:10:00.600Z,101577.78
2022-08-26T03:10:32.099Z,101577.44
2022-08-26T03:11:04.355Z,101578.63
2022-08-26T03:11:36.772Z,101582.97
2022-08-26T03:12:08.177Z,101581.41
2022-08-26T03:12:40.860Z,101585.38
2022-08-26T03:13:12.229Z,101582.28
2022-08-26T03:13:43.568Z,101582.72
2022-08-26T03:14:15.116Z,101580.34
2022-08-26T03:15:56.450Z,101585.47
2022-08-26T03:16:32.364Z,101593.38
2022-08-26T03:17:04.930Z,101584.63
2022-08-26T03:18:27.001Z,101588.63
2022-08-26T03:18:58.377Z,101589.50
2022-08-26T03:19:32.126Z,101587.13
2022-08-26T03:20:13.648Z,101588.69
2022-08-26T03:20:46.843Z,101591.84
2022-08-26T03:21:18.972Z,101592.63
2022-08-26T03:21:52.843Z,101597.38
2022-08-26T03:22:29.232Z,101591.06
2022-08-26T03:23:00.577Z,101593.81
2022-08-26T03:23:33.213Z,101598.16
2022-08-26T03:24:05.923Z,101585.88
2022-08-26T03:24:37.667Z,101600.50
2022-08-26T03:25:11.538Z,101588.25
2022-08-26T03:25:42.948Z,101588.63
2022-08-26T03:26:16.304Z,101587.06
2022-08-26T03:26:52.502Z,101589.41
2022-08-26T03:27:24.382Z,101584.66
2022-08-26T03:27:55.747Z,101587.44
2022-08-26T03:28:49.976Z,101587.84
2022-08-26T03:29:40.349Z,101584.72
2022-08-26T03:30:32.284Z,101583.22
2022-08-26T03:31:04.595Z,101580.47
2022-08-26T03:31:36.126Z,101587.22
2022-08-26T03:32:09.008Z,101585.22
2022-08-26T03:32:41.507Z,101582.44
2022-08-26T03:33:14.729Z,101582.38
2022-08-26T03:33:47.222Z,101579.97
2022-08-26T03:34:21.148Z,101583.09
2022-08-26T03:34:54.182Z,101584.66
2022-08-26T03:35:25.756Z,101587.44
2022-08-26T03:35:57.463Z,101586.66
2022-08-26T03:36:29.048Z,101581.91
2022-08-26T03:37:00.859Z,101585.47
2022-08-26T03:37:32.210Z,101582.28
2022-08-26T03:38:04.702Z,101588.16
2022-08-26T03:38:36.040Z,101586.94
2022-08-26T03:39:07.901Z,101591.28
2022-08-26T03:39:58.041Z,101591.28
2022-08-26T03:40:29.594Z,101586.94
2022-08-26T03:41:19.490Z,101584.16
2022-08-26T03:41:51.636Z,101586.94
2022-08-26T03:44:05.722Z,101594.41
2022-08-26T03:44:56.664Z,101584.88
2022-08-26T03:45:28.097Z,101583.69
2022-08-26T03:45:59.468Z,101587.22
2022-08-26T03:46:33.139Z,101587.22
2022-08-26T03:47:07.210Z,101589.22
2022-08-26T03:47:39.887Z,101586.44
2022-08-26T03:48:30.082Z,101580.91
2022-08-26T03:49:03.106Z,101590.06
2022-08-26T03:49:35.944Z,101584.94
2022-08-26T03:50:10.031Z,101584.94
2022-08-26T03:50:42.642Z,101591.63
2022-08-26T03:51:18.337Z,101590.06
2022-08-26T03:51:50.095Z,101586.09
2022-08-26T03:52:21.549Z,101590.44
2022-08-26T03:52:55.189Z,101600.31
2022-08-26T03:53:26.887Z,101582.53
2022-08-26T03:53:59.110Z,101592.00
2022-08-26T03:54:30.533Z,101591.22
2022-08-26T03:55:02.441Z,101589.22
2022-08-26T03:57:00.528Z,101589.28
2022-08-26T03:57:32.321Z,101592.47
2022-08-26T03:58:04.132Z,101587.41
2022-08-26T03:58:36.952Z,101587.41
2022-08-26T03:59:09.246Z,101591.38
2022-08-26T03:59:41.324Z,101592.47
2022-08-26T04:00:33.708Z,101590.50
2022-08-26T04:01:06.069Z,101589.72
2022-08-26T04:02:47.104Z,101589.28
2022-08-26T04:03:38.559Z,101590.50
2022-08-26T04:04:09.955Z,101594.84
2022-08-26T04:04:46.869Z,101596.03
2022-08-26T04:05:20.580Z,101584.63
2022-08-26T04:05:52.233Z,101583.38
2022-08-26T04:06:35.838Z,101594.06
2022-08-26T04:07:07.307Z,101587.41
2022-08-26T04:07:40.932Z,101589.72
2022-08-26T04:08:12.273Z,101583.38
2022-08-26T04:08:44.760Z,101583.06
2022-08-26T04:09:20.803Z,101587.81
2022-08-26T04:09:58.580Z,101584.28
2022-08-26T04:10:31.059Z,101589.03
2022-08-26T04:11:02.415Z,101580.28
2022-08-26T04:11:38.612Z,101585.38
2022-08-26T04:12:11.051Z,101586.94
2022-08-26T04:12:42.455Z,101583.75
2022-08-26T04:13:13.813Z,101583.75
2022-08-26T04:13:46.351Z,101589.28
2022-08-26T04:14:22.313Z,101590.50
2022-08-26T04:14:53.816Z,101579.41
2022-08-26T04:15:25.671Z,101582.97
2022-08-26T04:15:57.477Z,101585.38
2022-08-26T04:16:29.943Z,101582.19
2022-08-26T04:17:02.736Z,101582.59
2022-08-26T04:17:34.433Z,101585.38
2022-08-26T04:18:06.790Z,101579.84
2022-08-26T04:18:46.474Z,101579.41
2022-08-26T04:19:20.834Z,101580.97
2022-08-26T04:19:53.851Z,101584.53
2022-08-26T04:20:45.400Z,101581.75
2022-08-26T04:21:16.851Z,101576.66
2022-08-26T04:21:52.736Z,101574.31
2022-08-26T04:22:25.081Z,101572.75
2022-08-26T04:23:16.683Z,101575.53
2022-08-26T04:23:51.528Z,101576.31
2022-08-26T04:24:26.144Z,101579.84
2022-08-26T04:24:59.187Z,101567.66
2022-08-26T04:25:30.575Z,101575.88
2022-08-26T04:26:02.200Z,101579.84
2022-08-26T04:26:39.507Z,101570.78
2022-08-26T04:27:32.684Z,101584.63
2022-08-26T04:28:22.817Z,101579.13
2022-08-26T04:28:54.971Z,101576.41
2022-08-26T04:29:26.849Z,101576.06
2022-08-26T04:29:58.940Z,101576.06
2022-08-26T04:30:30.307Z,101570.53
2022-08-26T04:31:02.445Z,101574.06
2022-08-26T04:31:55.456Z,101578.84
2022-08-26T04:33:16.003Z,101581.66
2022-08-26T04:33:52.958Z,101579.31
2022-08-26T04:34:28.570Z,101582.88
2022-08-26T04:35:00.736Z,101577.34
2022-08-26T04:35:34.173Z,101578.91
2022-08-26T04:36:24.716Z,101580.88
2022-08-26T04:36:57.594Z,101581.66
2022-08-26T04:37:28.932Z,101582.44
2022-08-26T04:38:00.827Z,101582.44
2022-08-26T04:39:21.699Z,101585.22
2022-08-26T04:39:54.182Z,101567.81
2022-08-26T04:40:27.566Z,101581.66
2022-08-26T04:41:19.546Z,101576.56
2022-08-26T04:41:51.406Z,101580.53
2022-08-26T04:42:26.007Z,101578.53
2022-08-26T04:42:57.767Z,101572.56
2022-08-26T04:43:30.468Z,101576.91
2022-08-26T04:44:51.450Z,101582.81
2022-08-26T04:45:23.276Z,101580.09
2022-08-26T04:45:55.064Z,101583.66
2022-08-26T04:46:28.091Z,101576.91
2022-08-26T04:47:51.698Z,101580.47
2022-08-26T04:48:23.038Z,101577.34
2022-08-26T04:48:54.788Z,101580.09
2022-08-26T04:50:15.346Z,101591.19
2022-08-26T04:50:50.075Z,101586.50
2022-08-26T04:51:27.293Z,101585.28
2022-08-26T04:51:59.867Z,101588.84
2022-08-26T04:52:31.240Z,101591.19
2022-08-26T04:53:02.774Z,101586.84
2022-08-26T04:53:37.309Z,101589.63
2022-08-26T04:54:09.361Z,101588.84
2022-08-26T04:54:41.910Z,101586.84
2022-08-26T04:55:13.412Z,101590.41
2022-08-26T04:55:45.677Z,101590.41
2022-08-26T04:56:19.815Z,101583.66
2022-08-26T04:56:51.111Z,101592.38
2022-08-26T04:58:15.115Z,101592.75
2022-08-26T04:58:46.464Z,101601.41
2022-08-26T04:59:18.398Z,101598.66
2022-08-26T04:59:49.762Z,101598.22
2022-08-26T05:00:21.891Z,101594.25
2022-08-26T05:00:55.213Z,101602.13
2022-08-26T05:02:15.439Z,101599.38
2022-08-26T05:02:46.787Z,101603.69
2022-08-26T05:03:43.399Z,101598.94
2022-08-26T05:04:16.347Z,101596.94
2022-08-26T05:04:51.897Z,101602.09
2022-08-26T05:05:23.304Z,101605.66
2022-08-26T05:05:54.698Z,101600.88
2022-08-26T05:06:26.134Z,101608.41
2022-08-26T05:07:02.213Z,101602.88
2022-08-26T05:07:35.196Z,101603.25
2022-08-26T05:08:06.983Z,101604.78
2022-08-26T05:08:38.781Z,101598.47
2022-08-26T05:09:10.162Z,101602.44
2022-08-26T05:10:00.645Z,101600.09
2022-08-26T05:10:34.523Z,101600.50
2022-08-26T05:11:06.748Z,101609.59
2022-08-26T05:11:40.782Z,101594.19
2022-08-26T05:12:12.787Z,101608.44
2022-08-26T05:12:44.478Z,101604.53
2022-08-26T05:13:18.934Z,101601.78
2022-08-26T05:14:41.340Z,101605.38
2022-08-26T05:15:12.839Z,101605.38
2022-08-26T05:15:45.640Z,101596.66
2022-08-26T05:16:17.255Z,101605.75
2022-08-26T05:16:49.354Z,101610.88
2022-08-26T05:17:20.844Z,101600.56
2022-08-26T05:17:52.700Z,101607.66
2022-08-26T05:18:43.483Z,101612.78
2022-08-26T05:19:18.758Z,101609.22
2022-08-26T05:19:50.620Z,101605.69
2022-08-26T05:20:40.399Z,101606.88
2022-08-26T05:21:21.023Z,101606.09
2022-08-26T05:21:52.620Z,101608.88
2022-08-26T05:22:23.966Z,101606.09
2022-08-26T05:22:56.603Z,101611.22
2022-08-26T05:23:28.704Z,101614.78
2022-08-26T05:24:00.951Z,101614.00
2022-08-26T05:24:33.508Z,101610.03
2022-08-26T05:25:05.255Z,101610.81
2022-08-26T05:25:41.900Z,101620.66
2022-08-26T05:26:13.647Z,101616.72
2022-08-26T05:26:48.091Z,101612.38
2022-08-26T05:27:21.103Z,101608.41
2022-08-26T05:27:52.449Z,101617.91
2022-08-26T05:28:23.929Z,101617.13
2022-08-26T05:28:57.211Z,101615.97
2022-08-26T05:29:28.796Z,101612.06
2022-08-26T05:30:01.448Z,101614.06
2022-08-26T05:30:32.827Z,101620.00
2022-08-26T05:31:20.392Z,101616.81
2022-08-26T05:31:53.264Z,101614.91
2022-08-26T05:32:27.503Z,101615.75
2022-08-26T05:33:01.483Z,101618.94
2022-08-26T05:33:34.160Z,101613.41
2022-08-26T05:34:06.994Z,101614.19
2022-08-26T05:36:40.084Z,101631.56
2022-08-26T05:37:11.502Z,101619.72
2022-08-26T05:38:52.240Z,101620.09
2022-08-26T05:39:24.507Z,101628.38
2022-08-26T05:39:55.899Z,101628.03
2022-08-26T05:40:28.387Z,101618.94
2022-08-26T05:40:59.969Z,101619.28
2022-08-26T05:42:09.129Z,101628.38
2022-08-26T05:42:41.635Z,101633.56
2022-08-26T05:43:13.910Z,101624.06
2022-08-26T05:43:45.500Z,101620.88
2022-08-26T05:44:18.885Z,101624.41
2022-08-26T05:44:56.007Z,101625.19
2022-08-26T05:46:16.488Z,101625.97
2022-08-26T05:46:47.904Z,101635.50
2022-08-26T05:47:22.887Z,101637.13
2022-08-26T05:47:54.667Z,101632.00
2022-08-26T05:48:26.001Z,101634.44
2022-08-26T05:48:58.187Z,101644.28
2022-08-26T05:49:29.583Z,101637.22
2022-08-26T05:50:05.118Z,101635.97
2022-08-26T05:50:42.287Z,101644.28
2022-08-26T05:51:14.454Z,101634.44
2022-08-26T05:51:47.498Z,101637.22
2022-08-26T05:53:27.175Z,101643.53
2022-08-26T05:54:21.261Z,101639.97
2022-08-26T05:54:54.181Z,101644.72
2022-08-26T05:55:25.686Z,101644.72
2022-08-26T05:55:57.151Z,101644.72
2022-08-26T05:56:29.568Z,101635.66
2022-08-26T05:57:00.899Z,101639.19
2022-08-26T05:57:32.246Z,101641.19
2022-08-26T05:58:03.595Z,101638.41
2022-08-26T05:58:36.680Z,101648.28
2022-08-26T05:59:14.491Z,101647.06
2022-08-26T05:59:46.016Z,101642.75
2022-08-26T06:00:17.367Z,101643.53
2022-08-26T06:01:23.670Z,101641.97
2022-08-26T06:02:44.731Z,101643.16
2022-08-26T06:03:19.823Z,101640.41
2022-08-26T06:03:54.947Z,101646.72
2022-08-26T06:04:28.551Z,101641.19
2022-08-26T06:05:19.423Z,101648.72
2022-08-26T06:05:53.684Z,101646.72
2022-08-26T06:06:44.014Z,101645.50
2022-08-26T06:07:16.879Z,101647.06
2022-08-26T06:08:08.531Z,101645.84
2022-08-26T06:08:41.680Z,101644.66
2022-08-26T06:09:13.320Z,101649.75
2022-08-26T06:09:44.703Z,101646.56
2022-08-26T06:10:33.276Z,101646.56
2022-08-26T06:11:07.786Z,101650.91
2022-08-26T06:12:39.238Z,101643.81
2022-08-26T06:13:31.886Z,101648.13
2022-08-26T06:14:06.123Z,101652.94
2022-08-26T06:14:37.489Z,101652.94
2022-08-26T06:15:09.771Z,101642.66
2022-08-26T06:16:00.417Z,101656.88
2022-08-26T06:16:35.160Z,101647.34
2022-08-26T06:17:25.271Z,101647.34
2022-08-26T06:17:56.589Z,101650.91
2022-08-26T06:18:36.104Z,101643.38
2022-08-26T06:19:10.721Z,101652.84
2022-08-26T06:20:01.017Z,101650.84
2022-08-26T06:20:33.215Z,101658.72
2022-08-26T06:21:16.999Z,101650.41
2022-08-26T06:21:54.134Z,101653.19
2022-08-26T06:22:44.474Z,101657.94
2022-08-26T06:23:36.990Z,101657.94
2022-08-26T06:24:32.246Z,101656.03
2022-08-26T06:25:40.510Z,101657.66
2022-08-26T06:26:12.766Z,101663.19
2022-08-26T06:26:50.486Z,101660.84
2022-08-26T06:27:22.270Z,101662.41
2022-08-26T06:27:55.096Z,101656.09
2022-08-26T06:28:27.260Z,101663.59
2022-08-26T06:28:59.303Z,101660.06
2022-08-26T06:29:33.440Z,101661.25
2022-08-26T06:30:24.051Z,101656.94
2022-08-26T06:30:57.636Z,101664.81
2022-08-26T06:31:30.101Z,101659.28
2022-08-26T06:32:02.587Z,101660.84
2022-08-26T06:32:33.919Z,101661.63
2022-08-26T06:33:05.350Z,101663.19
2022-08-26T06:33:55.102Z,101659.22
2022-08-26T06:34:30.907Z,101657.22
2022-08-26T06:35:02.384Z,101657.66
2022-08-26T06:35:41.723Z,101665.97
2022-08-26T06:36:19.286Z,101662.81
2022-08-26T06:36:53.115Z,101664.38
2022-08-26T06:37:24.823Z,101667.16
2022-08-26T06:37:56.399Z,101667.16
2022-08-26T06:38:28.367Z,101667.94
2022-08-26T06:39:03.486Z,101665.16
2022-08-26T06:39:34.837Z,101673.91
2022-08-26T06:40:07.022Z,101667.59
2022-08-26T06:40:44.599Z,101665.22
2022-08-26T06:41:18.533Z,101671.22
2022-08-26T06:42:41.147Z,101664.91
2022-08-26T06:43:31.279Z,101668.09
2022-08-26T06:44:06.608Z,101668.88
2022-08-26T06:44:38.164Z,101662.56
2022-08-26T06:45:12.492Z,101668.88
2022-08-26T06:45:45.801Z,101668.09
2022-08-26T06:46:21.668Z,101666.09
2022-08-26T06:46:53.439Z,101675.19
2022-08-26T06:47:25.556Z,101664.91
2022-08-26T06:47:57.020Z,101665.22
2022-08-26T06:48:28.683Z,101669.56
2022-08-26T06:49:00.164Z,101663.59
2022-08-26T06:49:31.483Z,101670.28
2022-08-26T06:50:02.985Z,101671.06
2022-08-26T06:50:34.992Z,101673.78
2022-08-26T06:51:18.827Z,101668.59
2022-08-26T06:51:50.191Z,101676.06
2022-08-26T06:52:24.383Z,101676.06
2022-08-26T06:52:56.023Z,101675.28
2022-08-26T06:53:28.074Z,101673.31
2022-08-26T06:54:01.487Z,101665.38
2022-08-26T06:54:32.835Z,101673.28
2022-08-26T06:55:04.757Z,101681.13
2022-08-26T06:55:46.056Z,101668.47
2022-08-26T06:56:39.037Z,101672.81
2022-08-26T06:57:11.749Z,101674.81
2022-08-26T06:57:43.154Z,101672.41
2022-08-26T06:58:14.714Z,101676.72
2022-08-26T06:58:46.561Z,101668.78
2022-08-26T06:59:18.102Z,101673.91
2022-08-26T06:59:51.085Z,101671.13
2022-08-26T07:00:22.646Z,101674.69
2022-08-26T07:00:54.020Z,101672.69
2022-08-26T07:01:34.402Z,101676.25
2022-08-26T07:02:06.149Z,101674.25
2022-08-26T07:02:39.627Z,101672.28
2022-08-26T07:03:11.700Z,101683.34
2022-08-26T07:03:43.274Z,101673.06
2022-08-26T07:04:36.700Z,101685.69
2022-08-26T07:05:08.559Z,101681.38
2022-08-26T07:05:40.650Z,101677.03
2022-08-26T07:06:12.457Z,101678.59
2022-08-26T07:06:50.227Z,101676.25
2022-08-26T07:07:24.362Z,101677.03
2022-08-26T07:07:57.849Z,101683.72
2022-08-26T07:08:29.701Z,101682.16
2022-08-26T07:09:05.507Z,101682.16
2022-08-26T07:11:03.032Z,101680.66
2022-08-26T07:11:36.858Z,101684.63
2022-08-26T07:12:09.574Z,101683.06
2022-08-26T07:12:43.174Z,101687.38
2022-08-26T07:13:37.637Z,101687.38
2022-08-26T07:14:09.403Z,101690.53
2022-08-26T07:14:40.772Z,101689.75
2022-08-26T07:15:18.743Z,101688.94
2022-08-26T07:15:57.864Z,101695.69
2022-08-26T07:16:34.495Z,101694.50
2022-08-26T07:17:10.071Z,101688.94
2022-08-26T07:17:43.554Z,101695.69
2022-08-26T07:19:10.783Z,101696.53
2022-08-26T07:19:42.702Z,101689.44
2022-08-26T07:21:22.628Z,101690.22
2022-08-26T07:21:55.152Z,101700.09
2022-08-26T07:22:27.120Z,101699.31
2022-08-26T07:22:58.900Z,101698.53
2022-08-26T07:23:31.340Z,101696.53
2022-08-26T07:24:03.126Z,101705.63
2022-08-26T07:24:38.175Z,101697.75